Terminal Aerodrome Forecast
Issued by NWS

Home | Current Version | Previous Version | Text Only | Print | Product List | Glossary Off
Versions: 1 2 3 4 5 6 7 8 9 10 11 12 13 14 15 16 17 18 19 20 21 22 23 24

857
FTUS43 KICT 210147 AAA
TAFRSL
TAF AMD
KRSL 210147Z 2102/2124 VRB04KT P6SM SCT025 OVC045
     FM210700 24007KT P6SM SCT045
     FM211200 25004KT 5SM BR SKC
     FM211500 00000KT P6SM SCT070
     FM211700 14007KT P6SM OVC050=

USA.gov is the U.S. government's official web portal to all federal, state and local government web resources and services.